Time;durP1;ratioP1;P1;durP2;ratioP2;P2;SDS_P1;SDS_P2;PMS_P1;PMS_P2;Temp;Humidity;BMP_temperature;BMP_pressure;BME280_temperature;BME280_humidity;BME280_pressure;Samples;Min_cycle;Max_cycle;Signal;HPM_P1;HPM_P2
2023/10/03 00:01:29;;;;;;;41.55;14.95;;;;;;;17.03;100.00;100887.53;4987915;28;20041;-66
2023/10/03 00:03:55;;;;;;;40.78;14.32;;;;;;;16.95;100.00;100878.00;4987792;28;20039;-65
2023/10/03 00:06:20;;;;;;;40.72;15.80;;;;;;;16.92;100.00;100886.28;5001928;28;20035;-66
2023/10/03 00:08:46;;;;;;;43.08;15.23;;;;;;;16.94;100.00;100873.78;4986854;28;20575;-66
2023/10/03 00:11:18;;;;;;;36.60;14.07;;;;;;;16.92;100.00;100873.97;4990957;28;20485;-66
2023/10/03 00:13:45;;;;;;;46.38;14.95;;;;;;;16.95;100.00;100874.59;4988623;28;20505;-66
2023/10/03 00:16:11;;;;;;;42.50;15.45;;;;;;;17.00;100.00;100870.38;4992150;28;20035;-66
2023/10/03 00:18:36;;;;;;;42.22;14.63;;;;;;;16.90;100.00;100868.13;4985689;28;20412;-66
2023/10/03 00:21:02;;;;;;;34.92;13.88;;;;;;;16.83;100.00;100864.69;4987353;28;20544;-66
2023/10/03 00:23:27;;;;;;;40.55;13.90;;;;;;;16.91;100.00;100859.28;4987850;28;20038;-65
2023/10/03 00:25:59;;;;;;;44.30;14.90;;;;;;;16.84;100.00;100852.38;4987888;28;20042;-66
2023/10/03 00:28:27;;;;;;;41.40;14.63;;;;;;;16.82;100.00;100849.97;5001725;28;20054;-66
2023/10/03 00:30:52;;;;;;;41.95;15.07;;;;;;;16.88;100.00;100849.19;4991097;28;20096;-66
2023/10/03 00:33:21;;;;;;;38.92;15.50;;;;;;;16.85;100.00;100839.09;4991424;28;20030;-65
2023/10/03 00:35:47;;;;;;;37.53;14.77;;;;;;;16.83;100.00;100832.44;5000708;28;20038;-67
2023/10/03 00:38:15;;;;;;;41.13;14.80;;;;;;;16.82;100.00;100836.88;4984711;28;20090;-67
2023/10/03 00:40:48;;;;;;;39.65;14.98;;;;;;;16.83;100.00;100829.84;5003907;28;20030;-67
2023/10/03 00:43:14;;;;;;;44.28;15.38;;;;;;;16.87;100.00;100834.47;4988278;28;20041;-67
2023/10/03 00:45:39;;;;;;;42.22;15.60;;;;;;;16.93;100.00;100836.31;4989560;28;20034;-67
2023/10/03 00:48:06;;;;;;;46.13;16.15;;;;;;;16.91;100.00;100830.47;4969873;28;20038;-67
2023/10/03 00:50:34;;;;;;;41.83;14.65;;;;;;;16.89;100.00;100824.59;4978256;28;20508;-67
2023/10/03 00:53:05;;;;;;;45.08;15.38;;;;;;;16.90;100.00;100807.91;4987032;28;20500;-67
2023/10/03 00:55:32;;;;;;;38.90;14.07;;;;;;;16.87;100.00;100804.88;5000232;28;20089;-67
2023/10/03 00:58:07;;;;;;;44.72;15.23;;;;;;;16.83;100.00;100804.44;4987483;28;20673;-66
2023/10/03 01:00:45;;;;;;;40.88;15.07;;;;;;;16.84;100.00;100797.41;4981308;28;20460;-67
2023/10/03 01:03:27;;;;;;;40.47;14.75;;;;;;;16.85;100.00;100791.16;4981937;28;20053;-67
2023/10/03 01:05:53;;;;;;;48.25;14.85;;;;;;;16.83;100.00;100793.97;4984857;28;20049;-67
2023/10/03 01:08:19;;;;;;;43.13;15.98;;;;;;;16.89;100.00;100787.94;4985004;28;20037;-67
2023/10/03 01:10:45;;;;;;;43.35;15.80;;;;;;;16.88;100.00;100778.47;5000789;28;20046;-67
2023/10/03 01:13:13;;;;;;;40.92;16.42;;;;;;;16.84;100.00;100789.53;4984972;28;20047;-67
2023/10/03 01:15:40;;;;;;;42.80;15.55;;;;;;;16.90;100.00;100779.09;4982465;28;20452;-66
2023/10/03 01:18:09;;;;;;;42.47;15.95;;;;;;;16.95;100.00;100770.63;4983615;28;20100;-67
2023/10/03 01:20:48;;;;;;;38.55;14.45;;;;;;;16.89;100.00;100772.22;4984613;28;20595;-66
2023/10/03 01:23:15;;;;;;;38.63;15.10;;;;;;;16.84;100.00;100768.59;4985113;28;20091;-67
2023/10/03 01:25:43;;;;;;;47.58;16.88;;;;;;;16.90;100.00;100765.19;5001926;28;20501;-67
2023/10/03 01:28:13;;;;;;;46.55;15.65;;;;;;;16.88;100.00;100757.53;4984490;28;20042;-66
2023/10/03 01:30:41;;;;;;;40.78;15.20;;;;;;;16.85;100.00;100749.28;4988178;28;20488;-67
2023/10/03 01:33:07;;;;;;;42.08;15.35;;;;;;;16.96;100.00;100753.13;5001921;28;20511;-67
2023/10/03 01:35:33;;;;;;;44.33;16.08;;;;;;;16.96;100.00;100738.22;4985292;28;20236;-67
2023/10/03 01:37:59;;;;;;;41.53;15.88;;;;;;;16.91;100.00;100740.59;4972841;28;20105;-67
2023/10/03 01:40:26;;;;;;;42.83;16.25;;;;;;;16.99;100.00;100735.19;5006683;28;20034;-67
2023/10/03 01:42:52;;;;;;;42.47;14.82;;;;;;;17.02;100.00;100726.13;4987543;28;20113;-67
2023/10/03 01:45:26;;;;;;;48.33;16.77;;;;;;;16.99;100.00;100716.03;4999745;28;20037;-67
2023/10/03 01:47:52;;;;;;;35.92;14.43;;;;;;;16.88;100.00;100715.63;4983277;28;20041;-67
2023/10/03 01:50:19;;;;;;;45.20;15.57;;;;;;;16.93;100.00;100694.06;4983709;28;20034;-67
2023/10/03 01:52:48;;;;;;;41.20;15.73;;;;;;;17.03;100.00;100699.75;4984250;28;20082;-67
2023/10/03 01:55:17;;;;;;;50.60;16.30;;;;;;;17.01;100.00;100696.50;4988820;28;20038;-67
2023/10/03 01:57:45;;;;;;;40.17;16.02;;;;;;;16.89;100.00;100682.41;4985848;28;20179;-67
2023/10/03 02:00:24;;;;;;;41.50;14.90;;;;;;;16.91;100.00;100681.22;4967192;28;20041;-66
2023/10/03 02:02:52;;;;;;;43.42;15.52;;;;;;;17.02;100.00;100681.59;4999917;28;20493;-67
2023/10/03 02:05:23;;;;;;;36.08;14.45;;;;;;;16.87;100.00;100674.72;4984772;28;20154;-67
2023/10/03 02:07:51;;;;;;;42.20;15.55;;;;;;;16.92;100.00;100674.94;5001087;28;20975;-67
2023/10/03 02:10:18;;;;;;;43.97;15.73;;;;;;;16.95;100.00;100675.56;4988011;28;20042;-67
2023/10/03 02:12:50;;;;;;;47.80;15.52;;;;;;;16.95;100.00;100662.44;4983525;28;20517;-67
2023/10/03 02:15:26;;;;;;;41.90;15.60;;;;;;;16.94;100.00;100664.28;4997151;28;20045;-67
2023/10/03 02:17:57;;;;;;;41.72;15.60;;;;;;;16.86;100.00;100670.53;4985539;28;20046;-67
2023/10/03 02:20:25;;;;;;;46.00;15.38;;;;;;;16.87;100.00;100658.22;5001245;28;20097;-67
2023/10/03 02:22:54;;;;;;;42.08;15.57;;;;;;;16.83;100.00;100654.41;4968367;28;20087;-67
2023/10/03 02:25:29;;;;;;;43.75;15.75;;;;;;;16.80;100.00;100657.38;4983530;28;20096;-66
2023/10/03 02:27:56;;;;;;;34.40;13.20;;;;;;;16.91;100.00;100646.34;4987802;28;20061;-67
2023/10/03 02:30:25;;;;;;;42.05;14.63;;;;;;;16.87;100.00;100634.66;4990319;28;20050;-67
2023/10/03 02:32:52;;;;;;;37.65;15.02;;;;;;;16.93;100.00;100625.97;4998143;28;20057;-67
2023/10/03 02:35:22;;;;;;;38.70;13.98;;;;;;;16.88;100.00;100623.97;5002316;28;20477;-66
2023/10/03 02:37:49;;;;;;;36.28;14.10;;;;;;;16.80;100.00;100625.97;4986531;28;20034;-66
2023/10/03 02:40:21;;;;;;;41.97;14.38;;;;;;;16.81;100.00;100631.00;4987330;28;20038;-67
2023/10/03 02:42:51;;;;;;;36.90;13.93;;;;;;;16.72;100.00;100632.19;4982693;28;20396;-67
2023/10/03 02:45:22;;;;;;;38.70;14.85;;;;;;;16.76;100.00;100622.94;4965330;28;20030;-66
2023/10/03 02:47:48;;;;;;;38.65;14.15;;;;;;;16.70;100.00;100642.06;4983455;28;20130;-66
2023/10/03 02:50:15;;;;;;;37.22;14.27;;;;;;;16.65;100.00;100637.44;4983035;28;20042;-67
2023/10/03 02:52:42;;;;;;;37.83;14.68;;;;;;;16.63;100.00;100623.75;5000150;28;20558;-67
2023/10/03 02:55:13;;;;;;;37.33;13.77;;;;;;;16.59;100.00;100633.00;5000219;28;20444;-66
2023/10/03 02:57:40;;;;;;;37.45;13.70;;;;;;;16.67;100.00;100635.44;4988888;28;20039;-67
2023/10/03 03:00:12;;;;;;;34.45;13.93;;;;;;;16.61;100.00;100636.22;5000170;28;20048;-67
2023/10/03 03:02:42;;;;;;;34.03;13.57;;;;;;;16.58;100.00;100633.22;4986640;28;20504;-67
2023/10/03 03:05:15;;;;;;;34.75;12.25;;;;;;;16.55;100.00;100622.09;4982083;22;20043;-66
2023/10/03 03:07:45;;;;;;;35.38;13.38;;;;;;;16.53;100.00;100618.09;4959734;28;20527;-66
2023/10/03 03:10:17;;;;;;;36.33;14.18;;;;;;;16.52;100.00;100606.03;4961709;28;20039;-68
2023/10/03 03:12:46;;;;;;;38.35;13.95;;;;;;;16.53;100.00;100623.31;4963213;28;20556;-68
2023/10/03 03:15:22;;;;;;;32.58;13.57;;;;;;;16.50;100.00;100618.47;4963409;28;20038;-68
2023/10/03 03:17:50;;;;;;;35.17;13.18;;;;;;;16.47;100.00;100605.81;4958935;28;20085;-68
2023/10/03 03:20:36;;;;;;;33.45;12.45;;;;;;;16.45;100.00;100610.44;4972927;28;20035;-68
2023/10/03 03:23:02;;;;;;;32.22;12.55;;;;;;;16.43;100.00;100615.06;4964949;28;20039;-68
2023/10/03 03:25:37;;;;;;;38.78;14.07;;;;;;;16.43;100.00;100615.06;4977970;28;20077;-68
2023/10/03 03:28:13;;;;;;;32.67;12.82;;;;;;;16.41;100.00;100636.19;4961977;28;20370;-68
2023/10/03 03:30:46;;;;;;;33.60;12.50;;;;;;;16.39;100.00;100630.34;4964807;28;20039;-68
2023/10/03 03:33:19;;;;;;;36.20;12.50;;;;;;;16.39;100.00;100638.19;4965281;28;20039;-68
2023/10/03 03:35:46;;;;;;;31.23;11.68;;;;;;;16.35;100.00;100635.19;4966755;28;20034;-69
2023/10/03 03:38:18;;;;;;;30.55;11.88;;;;;;;16.33;100.00;100642.41;4980035;28;20183;-68
2023/10/03 03:40:53;;;;;;;36.63;12.65;;;;;;;16.29;100.00;100633.34;4963063;28;20031;-68
2023/10/03 03:43:20;;;;;;;31.70;12.00;;;;;;;16.27;100.00;100632.72;4962365;28;20043;-68
2023/10/03 03:45:45;;;;;;;32.53;12.95;;;;;;;16.27;100.00;100630.09;4973988;28;20101;-68
2023/10/03 03:48:13;;;;;;;35.92;13.68;;;;;;;16.24;100.00;100633.13;4978965;28;20492;-68
2023/10/03 03:50:39;;;;;;;33.83;12.95;;;;;;;16.25;100.00;100644.41;4963346;28;20518;-68
2023/10/03 03:53:06;;;;;;;39.28;12.60;;;;;;;16.23;100.00;100652.44;4964611;28;20108;-68
2023/10/03 03:55:36;;;;;;;31.98;11.85;;;;;;;16.29;100.00;100646.44;4962588;28;20041;-68
2023/10/03 03:58:07;;;;;;;31.23;11.57;;;;;;;16.36;100.00;100641.19;4949609;28;20042;-68
2023/10/03 04:00:34;;;;;;;28.77;10.75;;;;;;;16.43;100.00;100639.41;4975920;28;20034;-68
2023/10/03 04:03:05;;;;;;;26.42;10.25;;;;;;;16.52;100.00;100650.50;4964145;28;20174;-68
2023/10/03 04:05:32;;;;;;;27.25;9.50;;;;;;;16.86;100.00;100649.56;4960363;28;20043;-68
2023/10/03 04:07:59;;;;;;;26.20;8.52;;;;;;;16.96;100.00;100645.75;4960671;28;20046;-68
2023/10/03 04:10:26;;;;;;;27.77;8.95;;;;;;;17.30;100.00;100645.50;4961823;28;20074;-68
2023/10/03 04:12:52;;;;;;;23.75;9.18;;;;;;;17.59;100.00;100640.81;4964892;28;20633;-67
2023/10/03 04:15:20;;;;;;;26.05;9.10;;;;;;;18.07;97.70;100648.34;4962721;28;20062;-68
2023/10/03 04:17:48;;;;;;;18.25;7.47;;;;;;;18.37;95.63;100642.53;4962064;28;20045;-68
2023/10/03 04:20:30;;;;;;;22.75;8.70;;;;;;;18.46;95.20;100641.25;4970202;28;20505;-68
2023/10/03 04:22:59;;;;;;;23.42;9.35;;;;;;;18.45;94.86;100634.38;4942397;28;20043;-68
2023/10/03 04:25:26;;;;;;;28.48;9.40;;;;;;;18.71;93.72;100635.22;4958514;28;20039;-68
2023/10/03 04:27:54;;;;;;;23.02;8.00;;;;;;;18.56;94.24;100637.38;4944132;28;20122;-68
2023/10/03 04:30:21;;;;;;;21.40;7.82;;;;;;;18.62;94.09;100633.88;4946104;28;20087;-68
2023/10/03 04:32:47;;;;;;;22.88;8.27;;;;;;;18.79;92.82;100629.72;4944285;28;20031;-68
2023/10/03 04:35:14;;;;;;;27.33;9.88;;;;;;;18.87;92.81;100631.28;4957069;28;20039;-68
2023/10/03 04:37:43;;;;;;;22.52;9.20;;;;;;;18.83;92.77;100633.53;4931740;28;20401;-68
2023/10/03 04:40:21;;;;;;;27.25;8.82;;;;;;;18.80;93.02;100641.03;4957957;28;20047;-69
2023/10/03 04:42:50;;;;;;;27.70;8.45;;;;;;;18.86;92.62;100653.34;4962170;28;20039;-69
2023/10/03 04:45:18;;;;;;;23.70;8.68;;;;;;;18.77;93.08;100657.22;4965517;28;20049;-69
2023/10/03 04:47:45;;;;;;;23.95;8.23;;;;;;;18.80;92.82;100655.00;4970127;28;20053;-68
2023/10/03 04:50:11;;;;;;;26.63;9.35;;;;;;;18.74;93.60;100653.19;4981210;28;20528;-68
2023/10/03 04:52:38;;;;;;;25.02;8.82;;;;;;;18.86;92.79;100648.88;4964133;28;20046;-68
2023/10/03 04:55:04;;;;;;;26.73;8.88;;;;;;;18.72;93.98;100654.41;4964543;28;20117;-66
2023/10/03 04:57:30;;;;;;;22.08;8.43;;;;;;;18.96;92.65;100642.34;4964747;28;20043;-66
2023/10/03 04:59:56;;;;;;;21.77;8.60;;;;;;;18.89;92.67;100654.72;4950626;28;20054;-68
2023/10/03 05:02:24;;;;;;;25.98;9.18;;;;;;;18.92;92.85;100657.72;4966300;28;20053;-68
2023/10/03 05:04:50;;;;;;;23.77;8.90;;;;;;;18.86;92.97;100653.34;4967001;28;20053;-68
2023/10/03 05:07:15;;;;;;;21.25;8.55;;;;;;;18.89;93.41;100655.50;4967697;28;20039;-68
2023/10/03 05:09:41;;;;;;;24.55;9.07;;;;;;;18.95;92.71;100656.47;4961853;28;20870;-68
2023/10/03 05:12:06;;;;;;;27.15;8.70;;;;;;;18.80;93.65;100651.53;4969244;28;20092;-68
2023/10/03 05:14:34;;;;;;;23.10;8.55;;;;;;;18.82;94.24;100657.41;4966046;28;21037;-68
2023/10/03 05:17:01;;;;;;;28.65;8.55;;;;;;;18.90;93.69;100669.47;4973173;28;20053;-68
2023/10/03 05:19:28;;;;;;;32.05;8.25;;;;;;;18.95;93.69;100653.84;4972208;28;20416;-68
2023/10/03 05:21:53;;;;;;;23.65;8.90;;;;;;;19.00;93.50;100665.31;4968144;28;20552;-66
2023/10/03 05:24:19;;;;;;;27.27;9.30;;;;;;;18.88;94.34;100682.81;4980246;28;20031;-65
2023/10/03 05:26:45;;;;;;;23.60;7.60;;;;;;;18.82;94.93;100678.44;4964282;28;20062;-69
2023/10/03 05:29:10;;;;;;;22.13;8.52;;;;;;;18.84;95.20;100692.94;4962033;28;20587;-69
2023/10/03 05:31:40;;;;;;;25.63;8.85;;;;;;;19.01;94.40;100692.44;4966750;28;20077;-68
2023/10/03 05:34:09;;;;;;;19.77;7.47;;;;;;;18.94;94.69;100663.56;4968410;28;20094;-68
2023/10/03 05:36:35;;;;;;;27.88;8.27;;;;;;;19.02;94.36;100688.75;4969393;28;20028;-68
2023/10/03 05:39:01;;;;;;;22.27;7.57;;;;;;;18.89;95.10;100691.50;4965381;28;20113;-70
2023/10/03 05:41:27;;;;;;;25.50;8.50;;;;;;;18.96;95.13;100690.44;4984243;28;20038;-68
2023/10/03 05:43:52;;;;;;;22.02;8.57;;;;;;;18.97;95.24;100699.94;4967989;28;20039;-68
2023/10/03 05:46:18;;;;;;;18.83;8.00;;;;;;;18.94;95.32;100702.97;4965256;28;20041;-68
2023/10/03 05:48:43;;;;;;;23.55;7.95;;;;;;;19.03;94.79;100706.16;4969185;28;20528;-68
2023/10/03 05:51:09;;;;;;;19.92;7.72;;;;;;;18.93;95.26;100727.66;4970129;28;22154;-68
2023/10/03 05:53:35;;;;;;;21.35;8.02;;;;;;;18.90;96.01;100746.47;4980234;28;20075;-68
2023/10/03 05:56:04;;;;;;;24.48;8.93;;;;;;;18.89;95.90;100728.28;4963643;28;20154;-68
2023/10/03 05:58:30;;;;;;;22.35;7.95;;;;;;;19.06;96.01;100745.94;4962352;28;20437;-67
2023/10/03 06:00:56;;;;;;;21.58;7.60;;;;;;;19.00;96.39;100732.84;4964827;28;20105;-68
2023/10/03 06:03:21;;;;;;;18.63;7.25;;;;;;;19.04;95.68;100755.88;4964636;28;20047;-68
2023/10/03 06:05:47;;;;;;;19.63;7.00;;;;;;;19.01;95.97;100753.66;4963711;28;20054;-68
2023/10/03 06:08:12;;;;;;;16.55;6.85;;;;;;;19.08;95.29;100719.47;4965958;28;20027;-68
2023/10/03 06:10:39;;;;;;;19.90;7.07;;;;;;;19.09;95.21;100776.25;4961015;28;20673;-68
2023/10/03 06:13:10;;;;;;;19.77;6.53;;;;;;;19.03;95.08;100754.25;4964043;28;20102;-68
2023/10/03 06:15:40;;;;;;;15.57;6.10;;;;;;;19.03;95.75;100756.06;4966421;28;20035;-68
2023/10/03 06:18:05;;;;;;;15.95;6.53;;;;;;;18.89;96.32;100763.22;4964683;28;20047;-68
2023/10/03 06:20:31;;;;;;;16.85;6.65;;;;;;;18.82;97.20;100771.16;4946654;28;20043;-68
2023/10/03 06:22:57;;;;;;;16.35;6.40;;;;;;;18.91;95.16;100761.22;4948405;28;20039;-68
2023/10/03 06:25:24;;;;;;;15.20;6.22;;;;;;;18.92;95.46;100749.66;4973489;28;20042;-68
2023/10/03 06:27:49;;;;;;;18.70;6.55;;;;;;;18.88;95.97;100756.38;4965716;28;20101;-68
2023/10/03 06:30:15;;;;;;;18.35;6.38;;;;;;;18.93;95.28;100767.06;4964694;28;20031;-68
2023/10/03 06:32:41;;;;;;;14.13;6.45;;;;;;;18.83;95.46;100774.56;4964800;28;20038;-68
2023/10/03 06:35:09;;;;;;;16.55;5.85;;;;;;;18.81;95.63;100795.78;4966398;28;20121;-68
2023/10/03 06:37:35;;;;;;;14.23;5.57;;;;;;;18.88;95.41;100802.84;4967350;28;20102;-68
2023/10/03 06:40:08;;;;;;;30.30;11.95;;;;;;;18.81;95.80;100814.19;4969388;28;20039;-68
2023/10/03 06:42:36;;;;;;;12.77;5.55;;;;;;;18.74;95.97;100831.78;4983059;28;20069;-68
2023/10/03 06:45:09;;;;;;;18.77;6.10;;;;;;;18.79;96.30;100828.53;4963384;28;20035;-68
2023/10/03 06:47:35;;;;;;;18.42;5.10;;;;;;;18.73;96.48;100824.91;4965770;28;20034;-67
2023/10/03 06:50:04;;;;;;;14.43;5.57;;;;;;;18.72;96.57;100830.38;4964868;28;20088;-68
2023/10/03 06:52:32;;;;;;;14.38;5.07;;;;;;;18.62;96.55;100838.69;4964892;28;20386;-69
2023/10/03 06:54:57;;;;;;;14.02;4.82;;;;;;;18.68;95.80;100829.97;4964591;28;20085;-66
2023/10/03 06:57:23;;;;;;;9.65;4.30;;;;;;;18.67;95.36;100826.56;4964151;28;20537;-66
2023/10/03 06:59:48;;;;;;;11.15;4.20;;;;;;;18.79;94.23;100831.94;4965576;28;20556;-66
2023/10/03 07:02:14;;;;;;;12.05;5.05;;;;;;;18.73;94.70;100816.22;4975404;28;20047;-66
2023/10/03 07:04:40;;;;;;;9.70;4.60;;;;;;;18.62;95.49;100807.97;4979476;28;20516;-67
2023/10/03 07:07:07;;;;;;;11.55;4.45;;;;;;;18.64;95.62;100829.59;4976401;28;20496;-68
2023/10/03 07:09:32;;;;;;;14.98;5.00;;;;;;;18.60;95.92;100824.97;4962973;28;20583;-67
2023/10/03 07:11:58;;;;;;;10.30;4.97;;;;;;;18.77;94.72;100814.78;4960178;28;20081;-67
2023/10/03 07:14:24;;;;;;;18.52;4.97;;;;;;;18.59;95.10;100803.16;4966711;28;20043;-67
2023/10/03 07:16:50;;;;;;;13.63;4.70;;;;;;;18.63;95.66;100829.81;4968209;28;20026;-67
2023/10/03 07:19:15;;;;;;;17.10;4.90;;;;;;;18.68;95.37;100845.72;4967105;28;20118;-67
2023/10/03 07:21:42;;;;;;;15.20;5.40;;;;;;;18.68;94.92;100829.97;4968379;28;20062;-67
2023/10/03 07:24:07;;;;;;;10.00;4.60;;;;;;;18.76;95.06;100826.31;4960120;28;20555;-68
2023/10/03 07:26:33;;;;;;;9.52;4.20;;;;;;;18.91;94.20;100803.25;4966118;28;20125;-67
2023/10/03 07:29:02;;;;;;;12.15;3.88;;;;;;;18.87;94.28;100820.41;4962270;28;20189;-67
2023/10/03 07:31:28;;;;;;;12.55;4.00;;;;;;;18.99;93.05;100854.72;4958169;28;20071;-68
2023/10/03 07:33:56;;;;;;;11.95;4.70;;;;;;;18.95;92.60;100859.59;4977226;28;20047;-68
2023/10/03 07:36:21;;;;;;;10.82;4.32;;;;;;;18.98;92.95;100850.47;4943285;28;20506;-67
2023/10/03 07:38:47;;;;;;;9.38;4.32;;;;;;;18.87;93.51;100854.56;4942120;28;20095;-68
2023/10/03 07:41:13;;;;;;;11.00;4.15;;;;;;;18.90;92.74;100866.50;4946180;28;20078;-68
2023/10/03 07:43:47;;;;;;;9.23;5.07;;;;;;;18.91;93.69;100844.44;4944375;28;20043;-67
2023/10/03 07:46:26;;;;;;;8.55;4.22;;;;;;;19.07;93.49;100849.22;4942488;28;20066;-67
2023/10/03 07:48:52;;;;;;;12.13;4.75;;;;;;;19.04;92.80;100858.34;4961950;28;20074;-67
2023/10/03 07:51:19;;;;;;;12.35;4.55;;;;;;;19.06;93.34;100855.47;4930946;28;20425;-68
2023/10/03 07:53:47;;;;;;;13.05;4.55;;;;;;;18.96;93.51;100860.41;4938221;28;20542;-68
2023/10/03 07:56:17;;;;;;;11.32;4.28;;;;;;;18.86;94.31;100887.91;4957073;28;20088;-68
2023/10/03 07:58:44;;;;;;;9.55;4.15;;;;;;;19.01;93.77;100876.34;4957802;28;20078;-67
2023/10/03 08:01:13;;;;;;;11.75;3.85;;;;;;;19.10;92.83;100864.56;4926611;28;20039;-68
2023/10/03 08:03:39;;;;;;;10.07;4.72;;;;;;;19.18;92.85;100884.53;4939482;28;20050;-67
2023/10/03 08:06:05;;;;;;;13.52;5.05;;;;;;;19.05;93.11;100907.25;4958446;28;20126;-67
2023/10/03 08:08:30;;;;;;;11.82;4.43;;;;;;;18.99;94.01;100889.69;4942373;28;20039;-67
2023/10/03 08:10:58;;;;;;;10.82;4.07;;;;;;;18.96;94.25;100891.94;4960109;28;20043;-67
2023/10/03 08:13:23;;;;;;;9.13;4.28;;;;;;;18.90;95.08;100893.56;4941424;28;20042;-67
2023/10/03 08:15:49;;;;;;;13.10;4.93;;;;;;;18.86;94.89;100903.69;4957527;28;20445;-67
2023/10/03 08:18:17;;;;;;;12.60;4.97;;;;;;;18.86;95.38;100903.69;4943668;28;20039;-68
2023/10/03 08:20:43;;;;;;;14.73;5.00;;;;;;;18.93;95.42;100906.28;4942839;28;20043;-68
2023/10/03 08:23:09;;;;;;;14.82;4.53;;;;;;;18.84;95.74;100895.19;4964196;28;20111;-67
2023/10/03 08:25:35;;;;;;;7.80;4.40;;;;;;;18.86;95.68;100903.69;4948597;28;20043;-68
2023/10/03 08:28:01;;;;;;;16.05;5.15;;;;;;;18.86;96.08;100918.66;4961935;28;20039;-67
2023/10/03 08:30:29;;;;;;;7.25;4.22;;;;;;;18.86;95.74;100929.16;4946849;28;20038;-67
2023/10/03 08:32:55;;;;;;;7.47;4.45;;;;;;;18.91;96.12;100931.16;4948336;28;20138;-68
2023/10/03 08:35:34;;;;;;;9.73;4.93;;;;;;;18.90;95.65;100935.59;4961454;28;20054;-67
2023/10/03 08:38:11;;;;;;;11.15;5.00;;;;;;;18.82;96.46;100918.25;4947056;28;20131;-68
2023/10/03 08:40:41;;;;;;;19.63;4.57;;;;;;;18.83;96.62;100940.84;4945192;28;20043;-68
2023/10/03 08:43:09;;;;;;;9.23;4.35;;;;;;;18.92;95.74;100927.50;4948183;28;20133;-67
2023/10/03 08:45:41;;;;;;;9.63;4.45;;;;;;;18.91;96.11;100936.41;4946770;28;20058;-68
2023/10/03 08:48:08;;;;;;;7.63;3.70;;;;;;;18.99;95.49;100931.72;4944635;28;20039;-67
2023/10/03 08:50:39;;;;;;;13.55;4.47;;;;;;;18.94;95.69;100922.84;4957234;28;20050;-68
2023/10/03 08:53:26;;;;;;;10.93;4.53;;;;;;;19.02;96.14;100927.88;4962080;28;20043;-68
2023/10/03 08:55:57;;;;;;;14.32;4.60;;;;;;;19.08;95.58;100942.00;4955693;28;20178;-67
2023/10/03 08:58:26;;;;;;;11.02;4.38;;;;;;;19.06;95.71;100921.16;4958757;28;20047;-67
2023/10/03 09:00:58;;;;;;;10.85;4.50;;;;;;;19.02;95.32;100927.88;4955124;28;20078;-67
2023/10/03 09:03:29;;;;;;;9.93;4.18;;;;;;;19.11;95.03;100912.69;4972650;28;20055;-68
2023/10/03 09:05:58;;;;;;;15.00;3.88;;;;;;;19.15;95.48;100919.13;4958656;28;20043;-67
2023/10/03 09:08:26;;;;;;;8.43;4.10;;;;;;;19.14;95.62;100925.41;4943884;28;20173;-67
2023/10/03 09:10:51;;;;;;;17.50;4.80;;;;;;;19.11;95.56;100924.00;4943860;28;20051;-67
2023/10/03 09:13:25;;;;;;;12.57;4.30;;;;;;;19.10;95.50;100934.69;4941954;28;20122;-68
2023/10/03 09:16:02;;;;;;;13.50;4.57;;;;;;;19.09;95.67;100927.84;4962671;28;20126;-67
2023/10/03 09:18:40;;;;;;;15.98;4.97;;;;;;;19.07;96.07;100930.69;4942032;28;20573;-67
2023/10/03 09:21:14;;;;;;;11.93;4.05;;;;;;;19.01;95.85;100931.53;4946548;28;20031;-67
2023/10/03 09:24:12;;;;;;;13.20;4.38;;;;;;;19.16;95.87;100947.81;4961612;28;20102;-67
2023/10/03 09:26:51;;;;;;;7.72;3.80;;;;;;;19.18;95.34;100958.13;4976277;28;20767;-68
2023/10/03 09:29:30;;;;;;;10.88;4.07;;;;;;;19.08;95.68;100963.84;4961832;28;20063;-68
2023/10/03 09:31:57;;;;;;;7.18;3.70;;;;;;;19.06;95.54;100955.34;4962900;28;20030;-67
2023/10/03 09:34:32;;;;;;;15.50;5.13;;;;;;;19.05;95.59;100954.53;4960143;28;20060;-67
2023/10/03 09:37:05;;;;;;;9.45;3.35;;;;;;;19.16;95.94;100960.16;4977682;28;20080;-67
2023/10/03 09:39:31;;;;;;;11.45;4.00;;;;;;;19.09;95.73;100954.94;4963697;28;20042;-67
2023/10/03 09:41:58;;;;;;;9.63;4.30;;;;;;;19.16;96.11;100950.44;4956134;28;20031;-68
2023/10/03 09:44:30;;;;;;;13.68;4.80;;;;;;;19.25;95.92;100957.09;4962079;28;20057;-68
2023/10/03 09:47:00;;;;;;;15.48;4.05;;;;;;;19.26;95.86;100969.19;4965021;28;20026;-67
2023/10/03 09:49:38;;;;;;;8.27;3.83;;;;;;;19.20;95.86;100975.28;4960035;28;20617;-67
2023/10/03 09:52:08;;;;;;;9.40;4.35;;;;;;;19.13;96.09;100971.88;4961437;28;20047;-67
2023/10/03 09:54:36;;;;;;;10.68;4.10;;;;;;;19.28;95.80;100965.56;4960797;28;20046;-67
2023/10/03 09:57:15;;;;;;;7.85;4.35;;;;;;;19.16;95.06;100962.78;4978137;28;20030;-67
2023/10/03 09:59:48;;;;;;;11.73;3.95;;;;;;;19.13;97.73;100985.03;4969417;28;20046;-67
2023/10/03 10:02:33;;;;;;;15.32;4.45;;;;;;;19.06;100.00;101000.84;4959055;28;20142;-68
2023/10/03 10:05:19;;;;;;;16.90;4.75;;;;;;;18.71;100.00;101009.97;4964191;28;20035;-69
2023/10/03 10:08:18;;;;;;;17.02;5.47;;;;;;;18.38;100.00;101014.22;4965327;28;20117;-70
2023/10/03 10:11:07;;;;;;;14.20;5.70;;;;;;;18.04;100.00;101000.28;4979641;28;20122;-69
2023/10/03 10:13:37;;;;;;;12.07;6.10;;;;;;;18.00;100.00;100993.03;4963191;28;20053;-68
2023/10/03 10:16:11;;;;;;;15.20;6.00;;;;;;;17.96;100.00;100997.06;4962204;28;20031;-68
2023/10/03 10:18:43;;;;;;;13.38;6.22;;;;;;;17.78;100.00;101000.22;4980174;28;20059;-68
2023/10/03 10:21:31;;;;;;;10.75;6.63;;;;;;;17.80;100.00;101019.19;4974714;28;20074;-67
2023/10/03 10:24:25;;;;;;;13.98;6.70;;;;;;;17.59;100.00;101022.75;4945157;28;20049;-67
2023/10/03 10:26:52;;;;;;;15.75;7.50;;;;;;;17.50;100.00;101019.53;4939742;28;20091;-67
2023/10/03 10:29:24;;;;;;;16.70;7.25;;;;;;;17.55;100.00;101029.41;4941570;28;20047;-68
2023/10/03 10:31:59;;;;;;;16.10;7.38;;;;;;;17.49;100.00;101036.25;4944552;28;20548;-68
2023/10/03 10:34:29;;;;;;;14.27;7.45;;;;;;;17.53;100.00;101045.31;4973054;28;20039;-67
2023/10/03 10:37:03;;;;;;;11.05;7.25;;;;;;;17.46;100.00;101049.72;4943836;28;20039;-68
2023/10/03 10:40:09;;;;;;;14.27;7.35;;;;;;;17.63;100.00;101053.66;4960396;28;20079;-67
2023/10/03 10:42:59;;;;;;;15.27;7.53;;;;;;;17.69;100.00;101065.16;4958463;28;20039;-67
2023/10/03 10:45:25;;;;;;;10.32;7.43;;;;;;;17.75;100.00;101074.84;4946109;28;20543;-67
2023/10/03 10:47:54;;;;;;;12.43;6.82;;;;;;;17.71;100.00;101081.50;4934287;28;20339;-68
2023/10/03 10:50:25;;;;;;;15.38;6.55;;;;;;;17.78;100.00;101078.88;4928061;28;20032;-67
2023/10/03 10:52:53;;;;;;;9.23;5.50;;;;;;;17.73;100.00;101086.56;4953474;28;20472;-67
2023/10/03 10:55:23;;;;;;;11.80;5.25;;;;;;;17.60;100.00;101084.69;4940370;28;20572;-67
2023/10/03 10:58:12;;;;;;;12.73;4.30;;;;;;;17.63;100.00;101079.03;4943885;28;20401;-67
2023/10/03 11:00:39;;;;;;;8.52;3.20;;;;;;;17.66;100.00;101068.97;4937265;28;20058;-67
2023/10/03 11:03:09;;;;;;;6.50;2.90;;;;;;;17.68;100.00;101066.16;4938805;28;20042;-67
2023/10/03 11:05:44;;;;;;;6.55;2.67;;;;;;;17.77;100.00;101078.09;4941742;28;20053;-67
2023/10/03 11:08:09;;;;;;;5.30;2.10;;;;;;;17.67;100.00;101075.84;4952872;28;20120;-67
2023/10/03 11:10:35;;;;;;;4.97;1.48;;;;;;;17.68;100.00;101072.19;4937162;28;20043;-68
2023/10/03 11:13:05;;;;;;;5.32;1.40;;;;;;;17.67;100.00;101090.78;4953675;28;20035;-68
2023/10/03 11:15:31;;;;;;;3.00;1.20;;;;;;;17.70;100.00;101085.13;4934629;28;20075;-67
2023/10/03 11:17:58;;;;;;;4.93;0.90;;;;;;;17.62;100.00;101087.91;4949962;28;20810;-67
2023/10/03 11:20:26;;;;;;;3.33;1.10;;;;;;;17.55;100.00;101084.47;4935712;28;20036;-67
2023/10/03 11:22:51;;;;;;;7.47;0.90;;;;;;;17.41;100.00;101075.72;4937525;28;20047;-67